createdAt,value
2019-02-24T00:01:51.927Z,4.70
2019-02-24T00:04:26.716Z,4.90
2019-02-24T00:07:01.508Z,5.00
2019-02-24T00:09:36.278Z,5.10
2019-02-24T00:12:11.191Z,5.10
2019-02-24T00:14:45.971Z,5.20
2019-02-24T00:17:20.687Z,5.10
2019-02-24T00:19:55.395Z,5.10
2019-02-24T00:22:30.148Z,5.10
2019-02-24T00:25:05.262Z,4.90
2019-02-24T00:27:39.981Z,4.90
2019-02-24T00:30:14.701Z,4.80
2019-02-24T00:32:49.423Z,4.80
2019-02-24T00:35:24.201Z,4.90
2019-02-24T00:37:58.912Z,5.00
2019-02-24T00:40:33.615Z,5.00
2019-02-24T00:43:08.375Z,5.00
2019-02-24T00:45:43.290Z,4.90
2019-02-24T00:48:18.101Z,5.00
2019-02-24T00:50:52.794Z,4.40
2019-02-24T00:53:27.519Z,4.60
2019-02-24T00:56:02.755Z,4.50
2019-02-24T00:58:37.489Z,4.50
2019-02-24T01:01:12.196Z,4.60
2019-02-24T01:03:48.083Z,4.60
2019-02-24T01:06:22.811Z,4.70
2019-02-24T01:08:57.983Z,4.70
2019-02-24T01:11:32.807Z,4.50
2019-02-24T01:14:07.607Z,4.30
2019-02-24T01:16:42.315Z,4.40
2019-02-24T01:19:17.020Z,4.30
2019-02-24T01:21:51.718Z,4.30
2019-02-24T01:24:26.427Z,4.30
2019-02-24T01:27:01.130Z,4.40
2019-02-24T01:29:36.957Z,4.40
2019-02-24T01:32:11.735Z,3.90
2019-02-24T01:34:46.450Z,4.10
2019-02-24T01:37:21.150Z,4.00
2019-02-24T01:39:55.859Z,4.10
2019-02-24T01:42:30.565Z,4.20
2019-02-24T01:45:06.155Z,4.00
2019-02-24T01:47:40.861Z,3.90
2019-02-24T01:50:15.695Z,3.90
2019-02-24T01:52:50.408Z,4.00
2019-02-24T01:55:25.115Z,4.00
2019-02-24T01:57:59.819Z,4.00
2019-02-24T02:00:34.619Z,3.90
2019-02-24T02:03:09.403Z,3.80
2019-02-24T02:05:44.108Z,3.80
2019-02-24T02:08:18.891Z,3.70
2019-02-24T02:10:53.615Z,3.30
2019-02-24T02:13:28.326Z,3.50
2019-02-24T02:16:03.039Z,3.30
2019-02-24T02:18:37.748Z,3.40
2019-02-24T02:21:12.471Z,3.20
2019-02-24T02:23:47.159Z,3.10
2019-02-24T02:26:22.028Z,3.20
2019-02-24T02:28:56.740Z,3.00
2019-02-24T02:31:31.460Z,3.20
2019-02-24T02:34:06.180Z,3.20
2019-02-24T02:36:40.904Z,3.00
2019-02-24T02:39:15.627Z,3.10
2019-02-24T02:41:50.347Z,3.20
2019-02-24T02:44:25.078Z,3.10
2019-02-24T02:46:59.792Z,3.20
2019-02-24T02:49:34.524Z,3.20
2019-02-24T02:52:09.307Z,3.10
2019-02-24T02:54:44.018Z,3.10
2019-02-24T02:57:18.715Z,2.90
2019-02-24T02:59:53.439Z,3.10
2019-02-24T03:02:28.212Z,3.20
2019-02-24T03:05:02.920Z,3.30
2019-02-24T03:07:53.263Z,2.90
2019-02-24T03:10:28.002Z,2.80
2019-02-24T03:13:03.782Z,3.00
2019-02-24T03:15:38.511Z,3.10
2019-02-24T03:18:13.223Z,3.20
2019-02-24T03:20:47.931Z,3.30
2019-02-24T03:23:22.636Z,3.30
2019-02-24T03:25:57.355Z,3.30
2019-02-24T03:28:32.136Z,3.10
2019-02-24T03:31:06.848Z,3.10
2019-02-24T03:33:44.729Z,2.90
2019-02-24T03:36:17.991Z,2.80
2019-02-24T03:38:52.693Z,2.80
2019-02-24T03:41:27.405Z,3.00
2019-02-24T03:44:02.180Z,3.00
2019-02-24T03:46:36.892Z,3.00
2019-02-24T03:49:11.592Z,2.70
2019-02-24T03:51:46.299Z,2.80
2019-02-24T03:54:21.004Z,2.70
2019-02-24T03:56:57.352Z,2.80
2019-02-24T03:59:32.339Z,2.80
2019-02-24T04:02:07.160Z,2.80
2019-02-24T04:04:42.081Z,2.60
2019-02-24T04:07:16.879Z,2.70
2019-02-24T04:09:51.628Z,2.90
2019-02-24T04:12:26.456Z,2.80
2019-02-24T04:15:01.258Z,2.60
2019-02-24T04:17:36.083Z,2.30
2019-02-24T04:20:10.915Z,2.20
2019-02-24T04:22:45.655Z,2.20
2019-02-24T04:25:20.407Z,2.50
2019-02-24T04:27:55.145Z,2.40
2019-02-24T04:30:29.880Z,2.60
2019-02-24T04:33:04.784Z,2.50
2019-02-24T04:35:39.530Z,2.50
2019-02-24T04:38:15.974Z,2.60
2019-02-24T04:40:50.959Z,2.60
2019-02-24T04:43:25.715Z,2.50
2019-02-24T04:46:00.451Z,2.60
2019-02-24T04:48:35.268Z,2.50
2019-02-24T04:51:10.003Z,2.40
2019-02-24T04:53:44.818Z,2.10
2019-02-24T04:56:19.541Z,2.10
2019-02-24T04:58:54.283Z,2.10
2019-02-24T05:01:29.087Z,2.30
2019-02-24T05:04:03.905Z,2.40
2019-02-24T05:06:38.644Z,2.50
2019-02-24T05:09:13.371Z,2.50
2019-02-24T05:11:48.133Z,2.50
2019-02-24T05:14:22.948Z,2.40
2019-02-24T05:16:57.698Z,2.00
2019-02-24T05:19:32.491Z,2.00
2019-02-24T05:22:07.311Z,1.70
2019-02-24T05:24:42.114Z,1.90
2019-02-24T05:27:16.859Z,1.60
2019-02-24T05:29:51.675Z,1.80
2019-02-24T05:32:28.575Z,1.90
2019-02-24T05:35:03.456Z,2.00
2019-02-24T05:37:38.260Z,2.00
2019-02-24T05:40:13.065Z,2.10
2019-02-24T05:42:47.814Z,2.10
2019-02-24T05:45:22.540Z,2.00
2019-02-24T05:47:58.257Z,1.90
2019-02-24T05:50:32.978Z,1.80
2019-02-24T05:53:07.733Z,2.00
2019-02-24T05:55:42.467Z,2.00
2019-02-24T05:58:17.281Z,1.70
2019-02-24T06:00:52.088Z,1.80
2019-02-24T06:03:26.838Z,1.60
2019-02-24T06:06:01.563Z,1.90
2019-02-24T06:08:36.317Z,2.00
2019-02-24T06:11:11.068Z,1.90
2019-02-24T06:13:45.800Z,1.90
2019-02-24T06:16:20.600Z,2.00
2019-02-24T06:18:55.347Z,2.00
2019-02-24T06:21:30.096Z,1.80
2019-02-24T06:24:04.974Z,1.70
2019-02-24T06:26:39.704Z,1.90
2019-02-24T06:29:14.467Z,1.90
2019-02-24T06:31:49.344Z,1.80
2019-02-24T06:34:25.120Z,1.80
2019-02-24T06:36:59.923Z,1.80
2019-02-24T06:39:34.747Z,1.80
2019-02-24T06:42:09.482Z,2.00
2019-02-24T06:44:44.219Z,2.10
2019-02-24T06:47:18.940Z,2.10
2019-02-24T06:49:54.699Z,2.00
2019-02-24T06:52:29.417Z,2.00
2019-02-24T06:55:04.438Z,2.00
2019-02-24T06:57:39.175Z,1.90
2019-02-24T07:00:14.499Z,1.90
2019-02-24T07:02:49.367Z,2.00
2019-02-24T07:05:24.115Z,1.70
2019-02-24T07:07:58.839Z,1.90
2019-02-24T07:10:33.575Z,1.90
2019-02-24T07:13:08.307Z,2.00
2019-02-24T07:15:43.040Z,2.10
2019-02-24T07:18:17.864Z,2.10
2019-02-24T07:20:52.790Z,2.10
2019-02-24T07:23:27.871Z,2.20
2019-02-24T07:26:02.749Z,2.20
2019-02-24T07:28:37.475Z,2.20
2019-02-24T07:31:12.290Z,2.10
2019-02-24T07:33:47.313Z,2.20
2019-02-24T07:36:22.232Z,2.10
2019-02-24T07:38:57.551Z,2.10
2019-02-24T07:41:32.683Z,2.10
2019-02-24T07:44:07.419Z,2.20
2019-02-24T07:46:42.155Z,1.80
2019-02-24T07:49:16.905Z,2.00
2019-02-24T07:51:51.655Z,2.20
2019-02-24T07:54:26.400Z,2.40
2019-02-24T07:57:01.311Z,2.50
2019-02-24T07:59:36.143Z,2.70
2019-02-24T08:02:11.935Z,2.80
2019-02-24T08:04:46.659Z,2.90
2019-02-24T08:07:21.400Z,2.90
2019-02-24T08:09:56.206Z,3.10
2019-02-24T08:12:30.959Z,3.10
2019-02-24T08:15:06.516Z,3.30
2019-02-24T08:17:41.303Z,3.40
2019-02-24T08:20:16.124Z,3.40
2019-02-24T08:22:50.981Z,3.40
2019-02-24T08:25:25.935Z,3.40
2019-02-24T08:28:01.662Z,3.30
2019-02-24T08:30:41.705Z,3.20
2019-02-24T08:33:13.073Z,3.30
2019-02-24T08:35:47.818Z,3.40
2019-02-24T08:38:22.731Z,3.40
2019-02-24T08:40:57.487Z,3.60
2019-02-24T08:43:32.187Z,3.70
2019-02-24T08:46:06.931Z,3.90
2019-02-24T08:48:41.747Z,4.10
2019-02-24T08:51:16.482Z,4.20
2019-02-24T08:53:51.511Z,4.30
2019-02-24T08:56:26.327Z,4.30
2019-02-24T08:59:01.229Z,4.40
2019-02-24T09:01:36.243Z,4.30
2019-02-24T09:04:17.059Z,4.40
2019-02-24T09:06:51.948Z,4.50
2019-02-24T09:09:26.671Z,4.60
2019-02-24T09:12:01.823Z,4.90
2019-02-24T09:14:36.620Z,4.80
2019-02-24T09:17:11.500Z,4.60
2019-02-24T09:19:46.439Z,4.90
2019-02-24T09:22:21.269Z,4.90
2019-02-24T09:24:56.835Z,5.20
2019-02-24T09:27:34.118Z,5.10
2019-02-24T09:30:09.680Z,5.10
2019-02-24T09:32:46.051Z,5.20
2019-02-24T09:35:20.868Z,5.40
2019-02-24T09:37:55.816Z,5.60
2019-02-24T09:40:30.672Z,5.60
2019-02-24T09:43:05.423Z,5.50
2019-02-24T09:45:40.214Z,5.40
2019-02-24T09:48:14.983Z,5.30
2019-02-24T09:50:49.795Z,5.30
2019-02-24T09:53:24.527Z,5.50
2019-02-24T09:55:59.411Z,5.50
2019-02-24T09:58:34.265Z,5.50
2019-02-24T10:01:10.954Z,5.50
2019-02-24T10:03:45.699Z,5.70
2019-02-24T10:06:20.511Z,5.90
2019-02-24T10:08:55.351Z,6.10
2019-02-24T10:11:30.211Z,6.00
2019-02-24T10:14:05.263Z,6.10
2019-02-24T10:16:40.093Z,6.00
2019-02-24T10:19:14.888Z,6.40
2019-02-24T10:21:49.648Z,6.70
2019-02-24T10:24:34.855Z,6.70
2019-02-24T10:27:09.659Z,6.60
2019-02-24T10:29:44.529Z,6.50
2019-02-24T10:32:19.275Z,6.70
2019-02-24T10:34:54.016Z,6.50
2019-02-24T10:37:28.856Z,6.40
2019-02-24T10:40:04.112Z,6.30
2019-02-24T10:42:38.976Z,6.60
2019-02-24T10:45:13.955Z,6.50
2019-02-24T10:47:48.709Z,6.50
2019-02-24T10:50:23.623Z,6.40
2019-02-24T10:52:58.355Z,6.40
2019-02-24T10:55:33.371Z,6.50
2019-02-24T10:58:08.314Z,6.50
2019-02-24T11:00:43.271Z,6.70
2019-02-24T11:03:18.011Z,6.80
2019-02-24T11:05:52.803Z,6.90
2019-02-24T11:08:27.625Z,7.10
2019-02-24T11:11:02.355Z,7.40
2019-02-24T11:13:37.214Z,7.60
2019-02-24T11:16:12.034Z,7.80
2019-02-24T11:18:46.947Z,7.60
2019-02-24T11:21:21.714Z,7.60
2019-02-24T11:23:56.579Z,7.90
2019-02-24T11:26:31.311Z,8.00
2019-02-24T11:29:06.046Z,8.20
2019-02-24T11:31:40.792Z,8.30
2019-02-24T11:34:15.535Z,8.30
2019-02-24T11:36:50.358Z,8.40
2019-02-24T11:39:26.935Z,8.30
2019-02-24T11:42:02.851Z,8.20
2019-02-24T11:44:37.563Z,8.40
2019-02-24T11:47:12.299Z,8.40
2019-02-24T11:49:47.174Z,8.40
2019-02-24T11:52:21.911Z,8.60
2019-02-24T11:54:56.627Z,8.50
2019-02-24T11:57:31.359Z,8.60
2019-02-24T12:00:06.407Z,8.50
2019-02-24T12:02:42.291Z,8.50
2019-02-24T12:05:17.019Z,8.50
2019-02-24T12:07:51.776Z,8.50
2019-02-24T12:10:26.583Z,8.70
2019-02-24T12:13:01.361Z,8.70
2019-02-24T12:15:37.086Z,8.80
2019-02-24T12:18:11.906Z,8.90
2019-02-24T12:20:46.694Z,9.00
2019-02-24T12:23:21.507Z,8.90
2019-02-24T12:25:56.303Z,9.00
2019-02-24T12:28:31.243Z,9.00
2019-02-24T12:31:07.090Z,8.90
2019-02-24T12:33:41.833Z,9.00
2019-02-24T12:36:16.595Z,9.10
2019-02-24T12:38:52.590Z,9.30
2019-02-24T12:41:27.527Z,9.40
2019-02-24T12:44:02.467Z,9.30
2019-02-24T12:46:37.371Z,9.30
2019-02-24T12:49:12.187Z,9.30
2019-02-24T12:51:47.058Z,9.40
2019-02-24T12:54:21.799Z,9.50
2019-02-24T12:56:56.520Z,9.70
2019-02-24T12:59:31.430Z,9.70
2019-02-24T13:02:06.299Z,9.90
2019-02-24T13:04:41.127Z,10.10
2019-02-24T13:07:15.866Z,10.00
2019-02-24T13:09:50.696Z,10.20
2019-02-24T13:12:25.699Z,10.20
2019-02-24T13:15:00.520Z,10.30
2019-02-24T13:17:35.400Z,10.20
2019-02-24T13:20:10.483Z,10.30
2019-02-24T13:22:45.319Z,10.60
2019-02-24T13:25:20.150Z,10.50
2019-02-24T13:27:54.952Z,10.70
2019-02-24T13:30:29.803Z,11.00
2019-02-24T13:33:04.623Z,11.00
2019-02-24T13:35:40.665Z,11.10
2019-02-24T13:38:15.767Z,11.10
2019-02-24T13:40:50.603Z,11.50
2019-02-24T13:43:25.679Z,11.40
2019-02-24T13:46:00.416Z,11.50
2019-02-24T13:48:36.235Z,11.70
2019-02-24T13:51:11.043Z,11.60
2019-02-24T13:53:45.797Z,11.90
2019-02-24T13:56:20.520Z,12.00
2019-02-24T13:58:55.330Z,12.10
2019-02-24T14:01:30.139Z,12.20
2019-02-24T14:04:05.060Z,12.40
2019-02-24T14:06:39.796Z,12.30
2019-02-24T14:09:14.903Z,12.30
2019-02-24T14:11:49.650Z,12.40
2019-02-24T14:14:24.435Z,12.40
2019-02-24T14:16:59.376Z,12.50
2019-02-24T14:19:35.351Z,12.60
2019-02-24T14:22:10.228Z,12.60
2019-02-24T14:24:44.979Z,12.80
2019-02-24T14:27:19.720Z,12.70
2019-02-24T14:29:54.480Z,12.90
2019-02-24T14:32:33.002Z,13.00
2019-02-24T14:35:07.867Z,13.00
2019-02-24T14:37:42.689Z,12.90
2019-02-24T14:40:17.495Z,13.00
2019-02-24T14:42:53.276Z,13.00
2019-02-24T14:45:28.009Z,13.00
2019-02-24T14:48:02.811Z,13.00
2019-02-24T14:50:37.559Z,13.00
2019-02-24T14:53:12.525Z,13.00
2019-02-24T14:55:47.423Z,13.00
2019-02-24T14:58:22.156Z,13.10
2019-02-24T15:00:56.995Z,13.10
2019-02-24T15:03:31.819Z,13.30
2019-02-24T15:06:06.620Z,13.20
2019-02-24T15:08:41.624Z,13.10
2019-02-24T15:11:16.401Z,13.10
2019-02-24T15:13:51.132Z,13.00
2019-02-24T15:16:25.879Z,13.00
2019-02-24T15:19:00.745Z,13.00
2019-02-24T15:21:35.521Z,13.00
2019-02-24T15:24:10.323Z,13.00
2019-02-24T15:26:45.232Z,13.10
2019-02-24T15:29:20.044Z,13.10
2019-02-24T15:31:54.939Z,13.10
2019-02-24T15:34:29.836Z,13.00
2019-02-24T15:37:04.857Z,13.10
2019-02-24T15:39:39.607Z,13.00
2019-02-24T15:42:14.355Z,13.20
2019-02-24T15:44:49.087Z,13.30
2019-02-24T15:47:23.830Z,13.20
2019-02-24T15:49:58.559Z,13.30
2019-02-24T15:52:33.392Z,13.40
2019-02-24T15:55:08.353Z,13.30
2019-02-24T15:57:43.336Z,13.40
2019-02-24T16:00:28.706Z,13.40
2019-02-24T16:03:03.452Z,13.40
2019-02-24T16:05:38.181Z,13.40
2019-02-24T16:08:12.911Z,13.50
2019-02-24T16:10:47.739Z,13.50
2019-02-24T16:13:22.728Z,13.40
2019-02-24T16:15:57.554Z,13.30
2019-02-24T16:18:32.299Z,13.50
2019-02-24T16:21:07.060Z,13.50
2019-02-24T16:23:41.878Z,13.40
2019-02-24T16:26:17.518Z,13.40
2019-02-24T16:28:52.424Z,13.30
2019-02-24T16:31:27.183Z,13.50
2019-02-24T16:34:01.940Z,13.40
2019-02-24T16:36:36.855Z,13.50
2019-02-24T16:39:11.660Z,13.50
2019-02-24T16:41:46.487Z,13.40
2019-02-24T16:44:21.636Z,13.30
2019-02-24T16:46:56.562Z,13.30
2019-02-24T16:49:31.296Z,13.30
2019-02-24T16:52:06.124Z,13.10
2019-02-24T16:54:41.003Z,13.20
2019-02-24T16:57:15.871Z,13.20
2019-02-24T16:59:50.694Z,13.20
2019-02-24T17:02:25.779Z,13.10
2019-02-24T17:05:00.673Z,13.00
2019-02-24T17:07:41.287Z,12.90
2019-02-24T17:10:18.537Z,12.90
2019-02-24T17:12:53.409Z,12.80
2019-02-24T17:15:28.427Z,12.70
2019-02-24T17:18:03.218Z,12.60
2019-02-24T17:20:40.080Z,12.60
2019-02-24T17:23:14.906Z,12.60
2019-02-24T17:25:52.914Z,12.40
2019-02-24T17:28:27.535Z,12.40
2019-02-24T17:31:02.530Z,12.40
2019-02-24T17:33:38.518Z,12.30
2019-02-24T17:36:15.373Z,12.30
2019-02-24T17:38:50.195Z,12.20
2019-02-24T17:41:25.023Z,11.70
2019-02-24T17:44:00.074Z,11.70
2019-02-24T17:46:35.467Z,11.70
2019-02-24T17:49:10.231Z,11.90
2019-02-24T17:51:46.071Z,12.00
2019-02-24T17:54:21.203Z,11.90
2019-02-24T17:56:56.015Z,11.80
2019-02-24T17:59:40.224Z,11.80
2019-02-24T18:02:08.700Z,11.40
2019-02-24T18:04:43.439Z,11.50
2019-02-24T18:07:18.215Z,11.50
2019-02-24T18:09:53.131Z,11.40
2019-02-24T18:12:27.961Z,11.30
2019-02-24T18:15:02.864Z,11.40
2019-02-24T18:17:39.586Z,11.30
2019-02-24T18:20:16.933Z,11.20
2019-02-24T18:22:53.967Z,11.20
2019-02-24T18:25:28.846Z,11.20
2019-02-24T18:28:03.741Z,11.10
2019-02-24T18:30:38.942Z,11.10
2019-02-24T18:33:13.776Z,11.10
2019-02-24T18:35:48.524Z,11.00
2019-02-24T18:38:23.332Z,11.00
2019-02-24T18:40:58.076Z,10.90
2019-02-24T18:43:32.908Z,10.80
2019-02-24T18:46:07.819Z,10.90
2019-02-24T18:48:42.649Z,10.80
2019-02-24T18:51:17.408Z,10.80
2019-02-24T18:53:52.226Z,10.70
2019-02-24T18:56:27.051Z,10.60
2019-02-24T18:59:01.869Z,10.50
2019-02-24T19:01:36.595Z,10.10
2019-02-24T19:04:11.350Z,9.80
2019-02-24T19:06:46.083Z,9.70
2019-02-24T19:09:20.819Z,9.90
2019-02-24T19:11:55.623Z,9.90
2019-02-24T19:14:30.359Z,9.90
2019-02-24T19:17:05.147Z,9.90
2019-02-24T19:19:39.909Z,10.00
2019-02-24T19:22:14.651Z,9.90
2019-02-24T19:24:49.492Z,9.90
2019-02-24T19:27:24.448Z,9.90
2019-02-24T19:29:59.180Z,9.60
2019-02-24T19:32:34.099Z,9.70
2019-02-24T19:35:09.829Z,9.70
2019-02-24T19:37:44.837Z,9.70
2019-02-24T19:40:19.830Z,10.20
2019-02-24T19:42:54.627Z,10.10
2019-02-24T19:45:29.583Z,10.00
2019-02-24T19:48:04.518Z,9.80
2019-02-24T19:50:39.462Z,9.80
2019-02-24T19:53:14.273Z,9.70
2019-02-24T19:55:49.054Z,9.70
2019-02-24T19:58:23.977Z,9.80
2019-02-24T20:00:58.751Z,9.70
2019-02-24T20:03:33.792Z,9.30
2019-02-24T20:06:08.620Z,9.30
2019-02-24T20:08:43.463Z,9.30
2019-02-24T20:11:18.405Z,9.10
2019-02-24T20:13:53.153Z,9.00
2019-02-24T20:16:28.101Z,9.10
2019-02-24T20:19:02.850Z,9.20
2019-02-24T20:21:37.734Z,9.30
2019-02-24T20:24:12.715Z,9.30
2019-02-24T20:26:47.541Z,9.30
2019-02-24T20:29:22.403Z,9.40
2019-02-24T20:31:57.241Z,9.30
2019-02-24T20:34:32.088Z,9.10
2019-02-24T20:37:06.955Z,9.10
2019-02-24T20:39:41.871Z,8.70
2019-02-24T20:42:19.589Z,8.60
2019-02-24T20:44:54.487Z,8.60
2019-02-24T20:47:29.408Z,8.70
2019-02-24T20:50:04.761Z,8.70
2019-02-24T20:52:39.476Z,8.70
2019-02-24T20:55:14.447Z,8.80
2019-02-24T20:57:49.203Z,8.80
2019-02-24T21:00:26.607Z,8.80
2019-02-24T21:03:01.617Z,8.80
2019-02-24T21:05:36.662Z,8.80
2019-02-24T21:08:11.547Z,8.60
2019-02-24T21:10:46.303Z,8.30
2019-02-24T21:13:21.039Z,8.40
2019-02-24T21:15:55.871Z,8.50
2019-02-24T21:18:30.669Z,8.60
2019-02-24T21:21:05.592Z,8.60
2019-02-24T21:23:40.551Z,8.50
2019-02-24T21:26:15.307Z,8.50
2019-02-24T21:28:50.064Z,8.30
2019-02-24T21:31:24.783Z,8.40
2019-02-24T21:33:59.503Z,8.50
2019-02-24T21:36:34.476Z,8.40
2019-02-24T21:39:09.279Z,8.30
2019-02-24T21:41:45.663Z,8.20
2019-02-24T21:44:20.392Z,7.80
2019-02-24T21:46:55.249Z,8.00
2019-02-24T21:49:29.988Z,8.10
2019-02-24T21:52:04.882Z,8.10
2019-02-24T21:54:39.603Z,8.10
2019-02-24T21:57:14.431Z,8.10
2019-02-24T21:59:49.159Z,7.90
2019-02-24T22:02:23.902Z,8.00
2019-02-24T22:04:58.636Z,8.10
2019-02-24T22:07:33.366Z,8.20
2019-02-24T22:10:09.267Z,8.10
2019-02-24T22:12:44.199Z,8.10
2019-02-24T22:15:19.128Z,8.10
2019-02-24T22:17:53.951Z,8.10
2019-02-24T22:20:28.753Z,8.00
2019-02-24T22:23:03.581Z,8.00
2019-02-24T22:25:38.340Z,7.60
2019-02-24T22:28:13.235Z,7.50
2019-02-24T22:30:47.983Z,7.60
2019-02-24T22:33:22.717Z,7.70
2019-02-24T22:35:57.560Z,7.70
2019-02-24T22:38:32.300Z,7.60
2019-02-24T22:41:07.048Z,7.70
2019-02-24T22:43:41.773Z,7.80
2019-02-24T22:46:16.587Z,7.80
2019-02-24T22:48:51.318Z,7.80
2019-02-24T22:51:26.083Z,7.70
2019-02-24T22:54:00.876Z,7.70
2019-02-24T22:56:35.680Z,7.80
2019-02-24T22:59:10.819Z,7.80
2019-02-24T23:01:46.679Z,7.40
2019-02-24T23:04:21.702Z,7.40
2019-02-24T23:06:56.517Z,7.60
2019-02-24T23:09:31.324Z,7.30
2019-02-24T23:12:06.223Z,7.40
2019-02-24T23:14:41.039Z,7.40
2019-02-24T23:17:15.782Z,7.50
2019-02-24T23:19:50.510Z,7.50
2019-02-24T23:22:25.327Z,7.60
2019-02-24T23:25:00.068Z,7.60
2019-02-24T23:27:35.059Z,7.60
2019-02-24T23:30:10.025Z,7.50
2019-02-24T23:32:44.838Z,7.60
2019-02-24T23:35:20.603Z,7.60
2019-02-24T23:37:55.412Z,7.60
2019-02-24T23:40:30.216Z,7.60
2019-02-24T23:43:05.307Z,7.50
2019-02-24T23:45:40.043Z,7.20
2019-02-24T23:48:14.786Z,6.90
2019-02-24T23:50:49.535Z,6.90
2019-02-24T23:53:24.281Z,6.80
2019-02-24T23:55:59.005Z,7.00
2019-02-24T23:58:33.741Z,6.90
